Time;durP1;ratioP1;P1;durP2;ratioP2;P2;SDS_P1;SDS_P2;PMS_P1;PMS_P2;Temp;Humidity;BMP_temperature;BMP_pressure;BME280_temperature;BME280_humidity;BME280_pressure;Samples;Min_cycle;Max_cycle;Signal;HPM_P1;HPM_P2
2024/01/07 00:00:11;;;;;;;36.97;22.77;;;;;;;0.06;100.00;101270.97;10410079;28;20041;-75
2024/01/07 00:05:11;;;;;;;44.20;25.47;;;;;;;0.04;100.00;101263.84;10456371;28;20044;-76
2024/01/07 00:10:12;;;;;;;32.57;24.27;;;;;;;0.05;100.00;101269.16;10440088;28;20045;-76
2024/01/07 00:15:12;;;;;;;39.30;26.50;;;;;;;0.04;100.00;101269.91;10429550;28;20032;-76
2024/01/07 00:20:13;;;;;;;31.97;23.43;;;;;;;0.06;100.00;101280.34;10429399;28;20160;-76
2024/01/07 00:25:13;;;;;;;37.10;25.40;;;;;;;0.06;100.00;101276.13;10443966;28;20056;-76
2024/01/07 00:30:14;;;;;;;35.83;23.23;;;;;;;0.06;100.00;101272.63;10404703;28;20075;-76
2024/01/07 00:35:14;;;;;;;35.93;24.67;;;;;;;0.06;100.00;101280.34;10401914;28;20046;-76
2024/01/07 00:40:15;;;;;;;37.17;25.53;;;;;;;0.07;100.00;101272.78;10404713;28;20120;-76
2024/01/07 00:45:16;;;;;;;36.73;24.60;;;;;;;0.05;100.00;101282.03;10409076;28;20466;-76
2024/01/07 00:50:17;;;;;;;33.57;25.60;;;;;;;0.08;100.00;101279.75;10421899;28;20037;-77
2024/01/07 00:55:17;;;;;;;38.53;24.67;;;;;;;0.10;100.00;101287.59;10459575;28;20423;-76
2024/01/07 01:00:18;;;;;;;38.10;30.10;;;;;;;0.14;100.00;101297.44;10451685;28;20061;-76
2024/01/07 01:05:19;;;;;;;46.50;31.63;;;;;;;0.15;100.00;101299.25;10415923;28;20572;-77
2024/01/07 01:10:20;;;;;;;46.20;28.05;;;;;;;0.16;100.00;101305.31;10405278;28;20307;-77
2024/01/07 01:15:20;;;;;;;42.33;27.50;;;;;;;0.17;100.00;101310.59;10404849;28;20191;-78
2024/01/07 01:20:21;;;;;;;39.70;26.93;;;;;;;0.18;100.00;101319.25;10424778;28;20041;-76
2024/01/07 01:25:21;;;;;;;36.23;24.03;;;;;;;0.14;100.00;101323.19;10410414;28;20548;-76
2024/01/07 01:30:22;;;;;;;39.17;29.30;;;;;;;0.10;100.00;101329.72;10402360;28;20120;-75
2024/01/07 01:35:22;;;;;;;34.63;24.73;;;;;;;0.09;100.00;101332.13;10459670;28;20127;-76
2024/01/07 01:40:23;;;;;;;42.07;25.27;;;;;;;0.11;100.00;101339.25;10443191;28;20127;-76
2024/01/07 01:45:23;;;;;;;37.97;24.23;;;;;;;0.12;100.00;101353.94;10411329;28;20128;-75
2024/01/07 01:50:24;;;;;;;34.93;24.20;;;;;;;0.11;100.00;101353.78;10380881;28;20120;-76
2024/01/07 01:55:24;;;;;;;30.57;20.50;;;;;;;0.09;100.00;101355.28;10439212;28;20132;-76
2024/01/07 02:00:25;;;;;;;26.67;20.47;;;;;;;0.09;100.00;101358.78;10435810;28;20124;-76
2024/01/07 02:05:25;;;;;;;37.03;24.30;;;;;;;0.07;100.00;101367.09;10462399;28;20178;-76
2024/01/07 02:10:27;;;;;;;41.67;26.17;;;;;;;0.05;100.00;101377.25;10425507;28;20048;-76
2024/01/07 02:15:27;;;;;;;40.95;25.63;;;;;;;0.03;100.00;101376.22;10423083;28;20041;-76
2024/01/07 02:20:28;;;;;;;34.30;26.63;;;;;;;0.07;100.00;101386.03;10427458;28;20501;-76
2024/01/07 02:25:28;;;;;;;48.03;25.43;;;;;;;0.09;100.00;101388.75;10423161;28;20120;-76
2024/01/07 02:30:29;;;;;;;39.93;26.80;;;;;;;0.15;100.00;101394.50;10475810;28;20043;-76
2024/01/07 02:35:29;;;;;;;45.93;28.67;;;;;;;0.13;100.00;101388.28;10441971;28;20128;-76
2024/01/07 02:40:30;;;;;;;33.93;24.23;;;;;;;0.11;100.00;101388.16;10467427;28;20045;-76
2024/01/07 02:45:30;;;;;;;55.73;25.23;;;;;;;0.10;100.00;101400.88;10468482;28;20182;-76
2024/01/07 02:50:32;;;;;;;36.47;25.63;;;;;;;0.07;100.00;101403.13;10449885;28;20048;-76
2024/01/07 02:55:32;;;;;;;41.15;26.70;;;;;;;0.08;100.00;101410.09;10455554;28;20734;-76
2024/01/07 03:00:33;;;;;;;37.70;26.07;;;;;;;0.09;100.00;101407.69;10441980;28;20078;-75
2024/01/07 03:05:33;;;;;;;36.83;27.70;;;;;;;0.03;100.00;101412.25;10414024;28;20480;-75
2024/01/07 03:10:34;;;;;;;40.43;25.63;;;;;;;0.00;100.00;101414.50;10470032;28;20049;-76
2024/01/07 03:15:34;;;;;;;38.77;22.53;;;;;;;-0.01;100.00;101425.56;10461877;28;20040;-76
2024/01/07 03:20:35;;;;;;;38.47;24.40;;;;;;;0.01;100.00;101428.28;10466867;28;20174;-76
2024/01/07 03:25:35;;;;;;;32.73;21.90;;;;;;;0.03;100.00;101424.19;10440838;28;20666;-76
2024/01/07 03:30:36;;;;;;;28.87;20.33;;;;;;;-0.13;100.00;101435.53;10439933;28;20056;-75
2024/01/07 03:35:37;;;;;;;32.27;20.20;;;;;;;-0.36;100.00;101426.41;10460727;28;20469;-75
2024/01/07 03:40:37;;;;;;;37.03;22.73;;;;;;;-0.27;100.00;101425.53;10464708;28;20457;-75
2024/01/07 03:45:38;;;;;;;28.57;20.03;;;;;;;-0.19;100.00;101427.19;10475495;28;20119;-76
2024/01/07 03:50:39;;;;;;;27.07;21.80;;;;;;;-0.15;100.00;101434.47;10475068;28;20712;-75
2024/01/07 03:55:40;;;;;;;24.83;18.90;;;;;;;-0.18;100.00;101435.09;10432713;28;20463;-74
2024/01/07 04:00:40;;;;;;;20.30;15.33;;;;;;;-0.20;100.00;101446.88;10460184;28;20111;-75
2024/01/07 04:05:41;;;;;;;32.00;21.10;;;;;;;-0.18;100.00;101444.47;10441889;28;20494;-77
2024/01/07 04:10:41;;;;;;;29.60;21.37;;;;;;;-0.16;100.00;101446.44;10473518;28;20106;-76
2024/01/07 04:15:42;;;;;;;30.80;20.63;;;;;;;-0.16;100.00;101455.81;10457972;28;20175;-75
2024/01/07 04:20:42;;;;;;;34.70;21.20;;;;;;;-0.18;100.00;101453.09;10459304;28;20087;-76
2024/01/07 04:25:44;;;;;;;29.87;18.33;;;;;;;-0.20;100.00;101463.97;10428552;28;20037;-76
2024/01/07 04:30:44;;;;;;;32.00;18.42;;;;;;;-0.24;100.00;101460.19;10443085;28;20033;-75
2024/01/07 04:35:45;;;;;;;32.53;20.80;;;;;;;-0.26;100.00;101460.78;10458596;28;20119;-75
2024/01/07 04:40:46;;;;;;;26.40;19.80;;;;;;;-0.28;100.00;101468.38;10471715;28;20163;-75
2024/01/07 04:45:46;;;;;;;33.37;20.87;;;;;;;-0.24;100.00;101478.22;10471914;28;20067;-75
2024/01/07 04:50:47;;;;;;;26.87;18.13;;;;;;;-0.25;100.00;101476.41;10459675;28;20138;-76
2024/01/07 04:55:47;;;;;;;33.97;21.03;;;;;;;-0.26;100.00;101473.66;10453507;28;20037;-76
2024/01/07 05:00:48;;;;;;;27.33;20.17;;;;;;;-0.28;100.00;101481.22;10467118;28;20067;-75
2024/01/07 05:05:49;;;;;;;34.00;21.20;;;;;;;-0.27;100.00;101484.69;10407302;28;20537;-75
2024/01/07 05:10:49;;;;;;;37.73;24.17;;;;;;;-0.22;100.00;101496.38;10447208;28;20131;-76
2024/01/07 05:15:53;;;;;;;37.53;23.47;;;;;;;-0.22;100.00;101493.78;10462006;28;20131;-75
2024/01/07 05:20:53;;;;;;;36.03;23.30;;;;;;;-0.23;100.00;101505.75;10442207;28;20462;-75
2024/01/07 05:25:54;;;;;;;37.80;22.27;;;;;;;-0.22;100.00;101506.66;10401081;28;20049;-76
2024/01/07 05:30:55;;;;;;;35.23;20.67;;;;;;;-0.23;100.00;101508.34;10402829;28;20512;-76
2024/01/07 05:35:55;;;;;;;21.57;15.63;;;;;;;-0.27;100.00;101519.06;10437905;28;20508;-76
2024/01/07 05:40:56;;;;;;;32.77;21.53;;;;;;;-0.27;100.00;101518.13;10421429;28;20036;-76
2024/01/07 05:45:56;;;;;;;34.57;20.17;;;;;;;-0.39;100.00;101529.00;10406118;28;20495;-75
2024/01/07 05:50:57;;;;;;;33.57;22.37;;;;;;;-0.57;100.00;101529.69;10406861;28;20167;-74
2024/01/07 05:55:57;;;;;;;36.57;21.13;;;;;;;-0.62;100.00;101539.50;10434471;28;20036;-75
2024/01/07 06:00:58;;;;;;;26.47;15.23;;;;;;;-0.58;100.00;101540.72;10440732;28;20049;-75
2024/01/07 06:05:58;;;;;;;29.03;20.80;;;;;;;-0.50;100.00;101552.72;10438698;28;20041;-76
2024/01/07 06:10:59;;;;;;;36.27;19.83;;;;;;;-0.43;100.00;101556.84;10414542;28;20102;-75
2024/01/07 06:15:59;;;;;;;37.50;22.03;;;;;;;-0.39;100.00;101554.72;10406787;28;20481;-75
2024/01/07 06:21:00;;;;;;;39.90;23.30;;;;;;;-0.38;100.00;101568.50;10412063;28;20034;-75
2024/01/07 06:26:03;;;;;;;28.23;22.57;;;;;;;-0.40;100.00;101567.44;10405752;28;20041;-75
2024/01/07 06:31:04;;;;;;;37.30;20.02;;;;;;;-0.40;100.00;101588.91;10415189;28;20123;-75
2024/01/07 06:36:04;;;;;;;30.73;21.67;;;;;;;-0.42;100.00;101587.84;10407567;28;20563;-75
2024/01/07 06:41:05;;;;;;;41.27;21.20;;;;;;;-0.42;100.00;101594.66;10459616;28;20127;-78
2024/01/07 06:46:06;;;;;;;25.23;18.13;;;;;;;-0.43;100.00;101598.88;10473872;28;20174;-78
2024/01/07 06:51:06;;;;;;;32.70;18.50;;;;;;;-0.43;100.00;101600.56;10438888;28;20116;-77
2024/01/07 06:56:07;;;;;;;26.33;19.77;;;;;;;-0.44;100.00;101615.06;10455856;28;20520;-77
2024/01/07 07:01:07;;;;;;;25.70;18.80;;;;;;;-0.45;100.00;101616.75;10425430;28;20123;-77
2024/01/07 07:06:08;;;;;;;21.83;14.47;;;;;;;-0.47;100.00;101627.63;10456337;28;20119;-77
2024/01/07 07:11:08;;;;;;;22.87;16.83;;;;;;;-0.51;100.00;101633.19;10464632;28;20036;-78
2024/01/07 07:16:09;;;;;;;25.53;17.60;;;;;;;-0.53;100.00;101642.41;10453691;28;20116;-78
2024/01/07 07:21:09;;;;;;;19.93;15.17;;;;;;;-0.55;100.00;101649.03;10453120;28;20040;-77
2024/01/07 07:26:10;;;;;;;24.17;14.70;;;;;;;-0.57;100.00;101656.63;10436383;28;20041;-77
2024/01/07 07:31:12;;;;;;;15.90;11.30;;;;;;;-0.58;100.00;101662.50;10403830;28;20163;-77
2024/01/07 07:36:12;;;;;;;23.58;15.68;;;;;;;-0.57;100.00;101676.25;10457375;28;20098;-77
2024/01/07 07:41:13;;;;;;;21.07;15.33;;;;;;;-0.56;100.00;101688.38;10451385;28;20037;-77
2024/01/07 07:46:13;;;;;;;20.37;13.20;;;;;;;-0.61;100.00;101683.66;10450192;28;20033;-78
2024/01/07 07:51:14;;;;;;;31.50;17.30;;;;;;;-0.60;100.00;101695.75;10456880;28;20135;-78
2024/01/07 07:56:14;;;;;;;25.53;13.93;;;;;;;-0.60;100.00;101708.63;10463575;28;20450;-77
2024/01/07 08:01:16;;;;;;;23.90;18.17;;;;;;;-0.60;100.00;101710.28;10436519;28;20044;-77
2024/01/07 08:06:17;;;;;;;;;;;;;;;-0.59;100.00;101719.84;10431873;28;20048;-77
2024/01/07 08:11:18;;;;;;;25.92;15.05;;;;;;;-0.63;100.00;101722.81;10403445;28;19945;-77
2024/01/07 08:16:18;;;;;;;23.70;18.20;;;;;;;-0.67;100.00;101728.38;10456407;28;20049;-78
2024/01/07 08:21:20;;;;;;;19.63;11.83;;;;;;;-0.64;100.00;101733.88;10443912;28;20128;-78
2024/01/07 08:26:20;;;;;;;27.83;16.67;;;;;;;-0.65;100.00;101740.66;10459754;28;20047;-77
2024/01/07 08:31:21;;;;;;;22.70;15.53;;;;;;;-0.65;100.00;101744.88;10445612;28;20041;-77
2024/01/07 08:36:21;;;;;;;20.57;12.77;;;;;;;-0.62;100.00;101746.13;10448982;28;20178;-77
2024/01/07 08:41:22;;;;;;;27.37;16.20;;;;;;;-0.56;100.00;101747.50;10447701;28;20044;-78
2024/01/07 08:46:22;;;;;;;16.53;11.87;;;;;;;-0.54;100.00;101757.22;10389539;28;20037;-78
2024/01/07 08:51:23;;;;;;;20.77;15.67;;;;;;;-0.57;100.00;101761.13;10395428;28;20129;-76
2024/01/07 08:56:23;;;;;;;20.10;16.50;;;;;;;-0.55;100.00;101762.19;10407829;28;20049;-77
2024/01/07 09:01:24;;;;;;;20.73;13.47;;;;;;;-0.51;100.00;101774.63;10377436;28;20063;-76
2024/01/07 09:06:26;;;;;;;31.17;17.47;;;;;;;-0.51;100.00;101769.50;10362090;28;20064;-76
2024/01/07 09:11:32;;;;;;;20.98;13.90;;;;;;;-0.51;100.00;101779.78;10349932;28;20044;-76
2024/01/07 09:16:33;;;;;;;19.73;14.90;;;;;;;-0.50;100.00;101790.25;10356520;28;20208;-76
2024/01/07 09:21:33;;;;;;;23.53;15.83;;;;;;;-0.52;100.00;101801.09;10443693;28;20037;-77
2024/01/07 09:26:34;;;;;;;22.33;17.57;;;;;;;-0.52;100.00;101806.25;10413079;28;20124;-77
2024/01/07 09:31:34;;;;;;;22.60;13.57;;;;;;;-0.51;100.00;101805.50;10458538;28;20119;-76
2024/01/07 09:36:38;;;;;;;24.27;13.87;;;;;;;-0.53;100.00;101815.63;10449637;28;20144;-76
2024/01/07 09:41:39;;;;;;;24.27;15.88;;;;;;;-0.54;100.00;101820.59;10466308;28;20120;-76
2024/01/07 09:46:40;;;;;;;24.90;17.17;;;;;;;-0.50;100.00;101820.19;10438692;28;20047;-76
2024/01/07 09:51:40;;;;;;;20.80;15.37;;;;;;;-0.46;100.00;101830.97;10417883;28;20132;-76
2024/01/07 09:56:43;;;;;;;21.90;15.47;;;;;;;-0.35;100.00;101836.38;10455941;28;20043;-77
2024/01/07 10:01:44;;;;;;;22.60;13.65;;;;;;;-0.36;100.00;101839.69;10402113;28;20042;-76
2024/01/07 10:06:45;;;;;;;20.08;14.45;;;;;;;-0.39;100.00;101852.22;10419089;28;20069;-77
2024/01/07 10:11:46;;;;;;;19.03;14.93;;;;;;;-0.46;100.00;101851.56;10438837;28;20115;-77
2024/01/07 10:16:46;;;;;;;29.03;15.20;;;;;;;-0.38;100.00;101854.94;10420977;28;20120;-76
2024/01/07 10:21:58;;;;;;;25.10;16.57;;;;;;;-0.41;100.00;101864.91;10428503;28;20131;-77
2024/01/07 10:26:58;;;;;;;21.05;13.32;;;;;;;-0.47;100.00;101862.59;10435420;28;20065;-77
2024/01/07 10:32:02;;;;;;;18.20;12.13;;;;;;;-0.52;100.00;101861.19;10457305;28;20048;-77
2024/01/07 10:37:04;;;;;;;19.65;13.00;;;;;;;-0.46;100.00;101873.78;10455829;28;20067;-77
2024/01/07 10:42:05;;;;;;;20.35;12.95;;;;;;;-0.35;100.00;101878.41;10439696;28;20039;-77
2024/01/07 10:47:06;;;;;;;16.83;12.73;;;;;;;-0.29;100.00;101883.31;10433640;28;20034;-77
2024/01/07 10:52:07;;;;;;;17.08;12.00;;;;;;;-0.37;100.00;101881.59;10389909;28;20041;-77
2024/01/07 10:57:23;;;;;;;13.40;9.97;;;;;;;-0.53;100.00;101895.38;10397655;28;20034;-76
2024/01/07 11:02:24;;;;;;;16.13;10.18;;;;;;;-0.64;100.00;101899.31;10457295;28;20044;-77
2024/01/07 11:07:41;;;;;;;21.57;11.80;;;;;;;-0.68;100.00;101907.44;10423090;28;20044;-77
2024/01/07 11:12:42;;;;;;;17.95;10.65;;;;;;;-0.66;100.00;101900.81;10454483;28;20040;-76
2024/01/07 11:17:45;;;;;;;11.87;7.60;;;;;;;-0.57;100.00;101898.34;10422798;28;20552;-77
2024/01/07 11:22:46;;;;;;;25.35;11.70;;;;;;;-0.51;100.00;101908.38;10408743;28;20033;-77
2024/01/07 11:27:47;;;;;;;11.35;7.95;;;;;;;-0.46;100.00;101912.34;10439596;28;20040;-77
2024/01/07 11:32:47;;;;;;;13.83;9.10;;;;;;;-0.43;100.00;101912.69;10466230;28;20075;-77
2024/01/07 11:37:48;;;;;;;16.83;8.83;;;;;;;-0.46;100.00;101912.34;10410691;28;20120;-77
2024/01/07 11:42:48;;;;;;;11.83;7.83;;;;;;;-0.29;100.00;101909.06;10396014;28;20549;-78
2024/01/07 11:47:49;;;;;;;13.47;8.47;;;;;;;-0.26;100.00;101919.69;10382408;28;20163;-77
2024/01/07 11:52:50;;;;;;;12.50;7.40;;;;;;;-0.24;100.00;101917.25;10418575;28;20176;-78
2024/01/07 11:57:51;;;;;;;12.70;9.93;;;;;;;-0.24;100.00;101915.63;10460265;28;20112;-78
2024/01/07 12:02:52;;;;;;;;;;;;;;;-0.36;100.00;101924.56;10447129;28;20492;-77
2024/01/07 12:07:52;;;;;;;10.13;8.27;;;;;;;-0.49;100.00;101928.38;10455617;28;19970;-76
2024/01/07 12:12:53;;;;;;;13.60;9.50;;;;;;;-0.58;100.00;101932.53;10460818;28;20128;-77
2024/01/07 12:17:58;;;;;;;13.57;9.63;;;;;;;-0.58;100.00;101939.31;10439805;28;20045;-77
2024/01/07 12:23:08;;;;;;;14.55;8.90;;;;;;;-0.62;100.00;101943.22;10484162;28;20055;-78
2024/01/07 12:28:09;;;;;;;15.23;10.32;;;;;;;-0.57;100.00;101948.84;10443222;28;20400;-77
2024/01/07 12:33:09;;;;;;;14.13;8.77;;;;;;;-0.54;100.00;101952.69;10460090;28;20043;-76
2024/01/07 12:38:10;;;;;;;15.17;8.87;;;;;;;-0.51;100.00;101954.66;10442056;28;20060;-77
2024/01/07 12:43:10;;;;;;;21.13;8.73;;;;;;;-0.53;100.00;101957.09;10476358;28;20135;-77
2024/01/07 12:48:11;;;;;;;10.43;8.07;;;;;;;-0.46;100.00;101967.31;10482149;28;20131;-77
2024/01/07 12:53:11;;;;;;;10.80;7.30;;;;;;;-0.54;100.00;101980.97;10430863;28;20124;-78
2024/01/07 12:58:12;;;;;;;10.27;7.40;;;;;;;-0.57;100.00;101977.13;10410938;28;20044;-77
2024/01/07 13:03:17;;;;;;;10.13;6.50;;;;;;;-0.74;100.00;101991.63;10430156;28;20172;-77
2024/01/07 13:08:18;;;;;;;9.55;6.32;;;;;;;-0.89;100.00;101996.88;10401598;28;20037;-76
2024/01/07 13:13:19;;;;;;;8.85;5.60;;;;;;;-0.97;100.00;102007.97;10407615;28;20041;-77
2024/01/07 13:18:20;;;;;;;8.37;5.73;;;;;;;-0.94;100.00;102015.13;10400637;28;20049;-76
2024/01/07 13:23:20;;;;;;;10.83;7.03;;;;;;;-0.94;100.00;102016.00;10460929;28;20147;-76
2024/01/07 13:28:21;;;;;;;12.57;5.50;;;;;;;-0.92;100.00;102019.66;10436254;28;20568;-76
2024/01/07 13:33:21;;;;;;;9.13;5.20;;;;;;;-0.87;100.00;102032.13;10450889;28;20041;-76
2024/01/07 13:38:22;;;;;;;5.67;4.37;;;;;;;-0.81;100.00;102030.25;10463850;28;20120;-78
2024/01/07 13:43:25;;;;;;;10.47;5.70;;;;;;;-0.81;100.00;102036.31;10458833;28;20127;-79
2024/01/07 13:48:25;;;;;;;7.95;4.97;;;;;;;-0.81;100.00;102043.09;10422946;28;20095;-77
2024/01/07 13:53:26;;;;;;;8.97;6.00;;;;;;;-0.81;100.00;102056.88;10464815;28;20443;-77
2024/01/07 13:58:27;;;;;;;9.27;6.93;;;;;;;-0.90;100.00;102056.75;10461415;28;20044;-77
2024/01/07 14:03:29;;;;;;;7.73;5.40;;;;;;;-0.93;100.00;102061.53;10428898;28;20135;-76
2024/01/07 14:08:30;;;;;;;10.70;5.55;;;;;;;-1.06;100.00;102074.66;10454992;28;20384;-76
2024/01/07 14:13:32;;;;;;;7.63;4.90;;;;;;;-1.08;100.00;102077.78;10444394;28;20488;-75
2024/01/07 14:18:32;;;;;;;11.93;5.70;;;;;;;-1.10;100.00;102090.47;10459411;28;20098;-78
2024/01/07 14:23:33;;;;;;;6.63;4.50;;;;;;;-1.12;100.00;102089.38;10449281;28;20455;-78
2024/01/07 14:28:35;;;;;;;8.17;5.00;;;;;;;-1.19;100.00;102104.84;10434998;28;20362;-78
2024/01/07 14:33:35;;;;;;;;;;;;;;;-1.26;100.00;102121.19;10425631;28;20076;-78
2024/01/07 14:38:36;;;;;;;4.65;3.15;;;;;;;-1.31;100.00;102130.03;10427308;28;19944;-78
2024/01/07 14:43:36;;;;;;;6.97;3.57;;;;;;;-1.45;100.00;102137.78;10455059;28;20052;-77
2024/01/07 14:48:37;;;;;;;5.80;2.80;;;;;;;-1.49;100.00;102152.84;10399791;28;20400;-77
2024/01/07 14:53:39;;;;;;;7.53;3.80;;;;;;;-1.59;100.00;102160.19;10380661;28;20041;-76
2024/01/07 14:58:40;;;;;;;6.47;3.45;;;;;;;-1.65;100.00;102167.19;10400341;28;20049;-76
2024/01/07 15:03:41;;;;;;;6.37;3.43;;;;;;;-1.60;100.00;102176.34;10426329;28;20045;-77
2024/01/07 15:08:44;;;;;;;4.93;2.97;;;;;;;-1.75;100.00;102192.50;10406974;28;20370;-77
2024/01/07 15:13:45;;;;;;;5.00;3.42;;;;;;;-1.78;100.00;102209.38;10393151;28;20033;-77
2024/01/07 15:18:45;;;;;;;4.20;2.73;;;;;;;-1.80;100.00;102200.56;10381597;28;20045;-77
2024/01/07 15:23:46;;;;;;;5.53;2.50;;;;;;;-1.86;100.00;102212.69;10405098;28;20129;-77
2024/01/07 15:28:48;;;;;;;5.57;2.75;;;;;;;-1.84;100.00;102226.63;10382492;28;20041;-77
2024/01/07 15:33:48;;;;;;;5.60;2.60;;;;;;;-1.78;100.00;102236.72;10385125;28;20043;-75
2024/01/07 15:38:50;;;;;;;4.65;3.38;;;;;;;-1.84;100.00;102239.44;10423068;28;20405;-77
2024/01/07 15:43:51;;;;;;;5.37;2.93;;;;;;;-1.85;100.00;102247.88;10408469;28;20056;-76
2024/01/07 15:48:51;;;;;;;6.40;2.50;;;;;;;-1.99;100.00;102243.69;10443632;28;20056;-76
2024/01/07 15:53:52;;;;;;;6.07;2.60;;;;;;;-1.97;100.00;102259.25;10416621;28;20055;-77
2024/01/07 15:58:52;;;;;;;5.20;2.17;;;;;;;-1.91;100.00;102257.41;10440701;28;20128;-77
2024/01/07 16:03:54;;;;;;;3.27;1.80;;;;;;;-1.88;100.00;102275.75;10427903;28;20416;-77
2024/01/07 16:08:54;;;;;;;3.55;2.42;;;;;;;-1.93;100.00;102271.72;10443140;28;20055;-77
2024/01/07 16:13:55;;;;;;;2.43;2.07;;;;;;;-1.96;100.00;102285.09;10457714;28;20047;-77
2024/01/07 16:18:55;;;;;;;4.50;3.10;;;;;;;-1.92;100.00;102279.63;10444617;28;20123;-77
2024/01/07 16:23:58;;;;;;;4.78;2.40;;;;;;;-1.93;100.00;102297.38;10430074;28;20115;-78
2024/01/07 16:28:59;;;;;;;4.23;2.63;;;;;;;-2.00;100.00;102297.38;10441714;28;20142;-77
2024/01/07 16:33:59;;;;;;;6.17;3.73;;;;;;;-2.06;100.00;102295.00;10443269;28;20124;-78
2024/01/07 16:39:02;;;;;;;2.43;2.07;;;;;;;-2.01;100.00;102304.16;10449046;28;20048;-77
2024/01/07 16:44:05;;;;;;;5.50;3.13;;;;;;;-1.93;100.00;102306.00;10428890;28;20512;-77
2024/01/07 16:49:09;;;;;;;6.32;2.00;;;;;;;-1.84;100.00;102313.88;10440262;28;20242;-77
2024/01/07 16:54:09;;;;;;;6.28;2.78;;;;;;;-1.77;100.00;102315.56;10402779;28;20528;-78
2024/01/07 16:59:10;;;;;;;3.93;2.43;;;;;;;-1.75;100.00;102328.56;10427678;28;20046;-77
2024/01/07 17:04:10;;;;;;;3.63;1.53;;;;;;;-1.79;100.00;102337.56;10443514;28;20072;-78
2024/01/07 17:09:11;;;;;;;4.27;2.43;;;;;;;-1.75;100.00;102349.09;10451425;28;20033;-77
2024/01/07 17:14:12;;;;;;;4.87;3.00;;;;;;;-1.77;100.00;102360.09;10444594;28;20080;-78
2024/01/07 17:19:12;;;;;;;2.50;1.90;;;;;;;-1.78;100.00;102362.50;10457235;28;20655;-78
2024/01/07 17:24:12;;;;;;;3.23;2.37;;;;;;;-1.71;100.00;102365.06;10443699;28;20502;-79
2024/01/07 17:29:13;;;;;;;2.30;1.67;;;;;;;-1.67;100.00;102368.91;10439732;28;20045;-78
2024/01/07 17:34:13;;;;;;;4.93;3.00;;;;;;;-1.77;100.00;102364.31;10442748;28;20077;-79
2024/01/07 17:39:14;;;;;;;6.77;2.87;;;;;;;-1.94;100.00;102376.03;10437011;28;20045;-80
2024/01/07 17:44:14;;;;;;;3.07;1.20;;;;;;;-1.96;100.00;102377.50;10449993;28;20120;-80
2024/01/07 17:49:15;;;;;;;6.07;2.87;;;;;;;-1.94;100.00;102386.28;10438892;28;20392;-78
2024/01/07 17:54:16;;;;;;;6.60;2.43;;;;;;;-2.10;100.00;102393.75;10459140;28;20062;-78
2024/01/07 17:59:17;;;;;;;2.67;1.93;;;;;;;-2.16;100.00;102390.44;10430917;28;21284;-78
2024/01/07 18:04:17;;;;;;;5.00;2.05;;;;;;;-2.08;100.00;102410.25;10444469;28;20067;-79
2024/01/07 18:09:18;;;;;;;3.83;1.80;;;;;;;-2.05;100.00;102402.03;10414970;28;20124;-79
2024/01/07 18:14:20;;;;;;;8.63;3.00;;;;;;;-2.13;100.00;102405.28;10446818;28;20037;-78
2024/01/07 18:19:21;;;;;;;4.10;2.28;;;;;;;-2.25;100.00;102414.94;10446397;28;20074;-79
2024/01/07 18:24:22;;;;;;;4.47;2.70;;;;;;;-2.47;100.00;102417.41;10477544;28;20124;-78
2024/01/07 18:29:26;;;;;;;4.22;2.97;;;;;;;-2.66;100.00;102417.66;10439340;28;20032;-77
2024/01/07 18:34:26;;;;;;;6.65;3.15;;;;;;;-2.68;100.00;102419.13;10423949;28;20033;-78
2024/01/07 18:39:27;;;;;;;5.60;2.63;;;;;;;-2.79;100.00;102423.63;10416293;28;20591;-78
2024/01/07 18:44:28;;;;;;;5.13;2.90;;;;;;;-2.89;100.00;102421.53;10454073;28;20572;-78
2024/01/07 18:49:29;;;;;;;3.53;2.58;;;;;;;-3.03;100.00;102430.97;10440052;28;20132;-79
2024/01/07 18:54:29;;;;;;;8.47;3.17;;;;;;;-3.01;100.00;102434.63;10464967;28;20051;-79
2024/01/07 18:59:30;;;;;;;5.00;2.83;;;;;;;-3.14;100.00;102429.59;10451930;28;20441;-79
2024/01/07 19:04:31;;;;;;;5.75;3.40;;;;;;;-3.20;100.00;102431.38;10461877;28;20103;-78
2024/01/07 19:09:32;;;;;;;8.03;3.73;;;;;;;-3.25;100.00;102441.03;10464959;28;20564;-79
2024/01/07 19:14:32;;;;;;;7.17;3.70;;;;;;;-3.29;100.00;102443.00;10480916;27;20124;-78
2024/01/07 19:19:33;;;;;;;8.17;3.13;;;;;;;-3.30;100.00;102442.06;10447269;28;20107;-79
2024/01/07 19:24:37;;;;;;;5.63;3.80;;;;;;;-3.35;100.00;102463.59;10443090;28;20132;-79
2024/01/07 19:29:37;;;;;;;8.95;3.70;;;;;;;-3.37;100.00;102457.38;10477792;28;20033;-78
2024/01/07 19:34:38;;;;;;;5.93;3.67;;;;;;;-3.37;100.00;102470.16;10449670;28;20096;-80
2024/01/07 19:39:39;;;;;;;3.87;3.23;;;;;;;-3.50;100.00;102469.31;10420709;28;20087;-80
2024/01/07 19:44:40;;;;;;;8.50;4.45;;;;;;;-3.61;100.00;102460.25;10411464;28;20041;-80
2024/01/07 19:49:41;;;;;;;13.93;5.50;;;;;;;-3.66;100.00;102466.41;10399314;28;20047;-81
2024/01/07 19:54:41;;;;;;;5.07;3.70;;;;;;;-3.63;100.00;102466.81;10441226;28;20800;-80
2024/01/07 19:59:42;;;;;;;6.73;4.20;;;;;;;-3.61;100.00;102461.16;10441845;28;20120;-80
2024/01/07 20:04:44;;;;;;;7.57;5.60;;;;;;;-3.68;100.00;102471.31;10441161;28;20084;-81
2024/01/07 20:09:45;;;;;;;5.93;3.72;;;;;;;-3.81;100.00;102468.81;10468759;28;20041;-81
2024/01/07 20:14:45;;;;;;;6.93;4.27;;;;;;;-3.85;100.00;102467.47;10473911;27;20462;-81
2024/01/07 20:19:46;;;;;;;7.40;4.93;;;;;;;-3.93;100.00;102465.53;10412899;28;20121;-81
2024/01/07 20:24:47;;;;;;;12.77;5.45;;;;;;;-4.00;100.00;102465.47;10423474;28;20105;-82
2024/01/07 20:29:50;;;;;;;10.33;4.93;;;;;;;-4.05;100.00;102475.09;10411251;28;20052;-81
2024/01/07 20:34:52;;;;;;;6.30;4.40;;;;;;;-4.09;100.00;102471.91;10406794;28;20052;-80
2024/01/07 20:39:52;;;;;;;10.70;6.38;;;;;;;-4.08;100.00;102474.69;10466525;28;20067;-81
2024/01/07 20:44:52;;;;;;;7.83;5.00;;;;;;;-4.11;100.00;102471.75;10455856;28;20132;-81
2024/01/07 20:49:53;;;;;;;12.53;5.70;;;;;;;-4.14;100.00;102477.34;10462468;28;20132;-81
2024/01/07 20:54:53;;;;;;;8.03;5.27;;;;;;;-4.19;100.00;102480.03;10387453;28;20485;-82
2024/01/07 20:59:54;;;;;;;8.93;4.43;;;;;;;-4.20;100.00;102479.09;10401472;28;20041;-81
2024/01/07 21:04:54;;;;;;;7.40;5.23;;;;;;;-4.17;100.00;102482.06;10408041;28;20050;-81
2024/01/07 21:09:55;;;;;;;9.97;6.93;;;;;;;-4.17;100.00;102482.06;10442079;28;20048;-79
2024/01/07 21:14:57;;;;;;;15.80;7.30;;;;;;;-4.14;100.00;102474.78;10439349;28;20063;-82
2024/01/07 21:19:57;;;;;;;13.07;7.68;;;;;;;-4.18;100.00;102476.75;10437825;28;20041;-84
2024/01/07 21:24:58;;;;;;;7.77;5.97;;;;;;;-4.13;100.00;102475.72;10454289;28;20060;-82
2024/01/07 21:29:58;;;;;;;13.47;8.13;;;;;;;-4.14;100.00;102471.31;10462294;28;20123;-82
2024/01/07 21:34:59;;;;;;;17.90;9.27;;;;;;;-4.16;100.00;102472.75;10465966;28;20124;-85
2024/01/07 21:40:00;;;;;;;17.47;10.53;;;;;;;-4.15;100.00;102477.16;10447211;28;20044;-82
2024/01/07 21:45:01;;;;;;;13.80;8.33;;;;;;;-4.16;100.00;102477.88;10486762;28;20038;-84
2024/01/07 21:50:02;;;;;;;17.97;9.40;;;;;;;-4.18;100.00;102472.53;10465635;28;20443;-82
2024/01/07 21:55:03;;;;;;;9.93;6.50;;;;;;;-4.21;100.00;102468.69;10452585;28;20065;-80
2024/01/07 22:00:04;;;;;;;12.77;8.57;;;;;;;-4.30;100.00;102474.41;10455313;28;20044;-82
2024/01/07 22:05:07;;;;;;;16.48;9.63;;;;;;;-4.30;100.00;102479.53;10405148;28;20656;-82
2024/01/07 22:10:08;;;;;;;16.95;8.63;;;;;;;-4.31;100.00;102481.88;10476875;28;20493;-81
2024/01/07 22:15:08;;;;;;;16.73;11.07;;;;;;;-4.28;100.00;102483.22;10429196;28;20049;-81
2024/01/07 22:20:10;;;;;;;10.53;6.73;;;;;;;-4.30;100.00;102484.63;10452536;28;20453;-82
2024/01/07 22:25:11;;;;;;;11.07;6.43;;;;;;;-4.26;100.00;102482.50;10456170;28;20045;-81
2024/01/07 22:30:12;;;;;;;9.80;6.73;;;;;;;-4.30;100.00;102489.75;10456862;28;20539;-81